Sarasota Bradenton International Airport
KSRQ : now visible

Airfield :











YOU CAN JOIN US ON...

 
LOGIN :

Register | Disclaimer

   EN    FR    IT 

 









Legend :    VFR   Marginal VFR   IFR   Intensive IFR   Very Intensive IFR
Visi :
Ceiling :
>= 8 km
>= 3000ft
5 to 8 km
1000 to 3000 ft
1500m to 5 km
500 to 1000 ft
800 to 1500m
200 to 500 ft
< 800m
< 200 ft
Symbols :   Thunderstorms  Fog  Heavy snow  Heavy precipitations  Wind > 20 kt






- Airport Elevation : 30 ft
- IATA code : SRQ


KSRQ - Sarasota Bradenton International

CURRENT METAR :
  • 291556Z 20014KT 10SM SCT018 SCT022 30/25 A2995 RMK AO2 T03000250

EXPIRED METARs :
  • 291500Z 21013KT 10SM BKN010 BKN021 30/26 A2995 RMK AO2 T03000256
  • 291450Z 19012KT 10SM SCT015 BKN021 29/26 A2995 RMK AO2
  • 291353Z 18010KT 10SM FEW012 28/25 A2995 RMK AO2 SLP140 T02830250

TAF KSRQ
Valid from the 29 at 15:00 until the 30 at 12:00 UTC


291509Z 2915/3012 20012G18KT P6SM SCT015
TEMPO 2915/2917 BKN015
FM291700 22014G22KT P6SM SCT025
FM292200 24010G16KT P6SM VCSH SCT035 SCT250
FM300300 26008KT P6SM VCSH SCT020 BKN035
TEMPO 3003/3006 BKN020
FM300600 30010KT P6SM SCT020 BKN040
FM301000 36008KT P6SM SCT040
KZMA FIR / North America



MET'MAP, your aeronautical weather chart ! - Copyright ORBIFLY December 2007 - Disclaimer

ORBIFLY MET'MAP TEAM :

Programming & Development : Alexandra Zaïnal
Concept & original design : Baudouin d'Aumeries
Assistance for programming : Marc-Olivier Méhu
Technical & hardware support : Manuel Goepfert

Contact : metmap@orbifly.com




SOURCES & CREDITS :

   NOAA       Earth
Advisory